createdAt,value
2019-02-05T00:00:15.555Z,492.05
2019-02-05T00:01:15.534Z,514.82
2019-02-05T00:02:15.514Z,493.06
2019-02-05T00:03:15.522Z,515.08
2019-02-05T00:04:15.493Z,493.38
2019-02-05T00:05:15.502Z,514.67
2019-02-05T00:06:15.478Z,493.79
2019-02-05T00:07:15.504Z,493.51
2019-02-05T00:08:15.465Z,494.71
2019-02-05T00:09:15.452Z,492.98
2019-02-05T00:10:15.430Z,494.95
2019-02-05T00:11:15.418Z,493.28
2019-02-05T00:12:15.409Z,492.67
2019-02-05T00:13:15.416Z,493.50
2019-02-05T00:14:15.381Z,492.32
2019-02-05T00:15:15.387Z,495.02
2019-02-05T00:16:15.393Z,494.67
2019-02-05T00:17:15.351Z,494.65
2019-02-05T00:18:15.355Z,495.75
2019-02-05T00:19:15.327Z,495.28
2019-02-05T00:20:15.322Z,494.86
2019-02-05T00:21:15.307Z,494.42
2019-02-05T00:22:15.304Z,494.52
2019-02-05T00:23:15.302Z,493.34
2019-02-05T00:24:15.279Z,492.60
2019-02-05T00:25:15.268Z,495.40
2019-02-05T00:26:15.253Z,494.63
2019-02-05T00:27:15.240Z,493.84
2019-02-05T00:28:15.260Z,494.96
2019-02-05T00:29:15.219Z,494.44
2019-02-05T00:30:15.213Z,494.96
2019-02-05T00:31:15.198Z,496.01
2019-02-05T00:32:15.192Z,495.80
2019-02-05T00:33:15.185Z,493.38
2019-02-05T00:34:15.165Z,495.46
2019-02-05T00:35:15.167Z,492.86
2019-02-05T00:36:15.149Z,492.86
2019-02-05T00:37:15.140Z,495.33
2019-02-05T00:38:15.145Z,493.71
2019-02-05T00:39:15.114Z,495.48
2019-02-05T00:40:15.098Z,494.35
2019-02-05T00:41:15.079Z,493.92
2019-02-05T00:42:15.084Z,494.33
2019-02-05T00:43:15.068Z,493.47
2019-02-05T00:44:15.074Z,494.61
2019-02-05T00:45:15.056Z,494.21
2019-02-05T00:46:15.030Z,494.25
2019-02-05T00:47:15.022Z,493.40
2019-02-05T00:48:15.012Z,495.25
2019-02-05T00:49:15.019Z,494.44
2019-02-05T00:50:14.990Z,493.99
2019-02-05T00:51:14.979Z,493.45
2019-02-05T00:52:14.976Z,494.55
2019-02-05T00:53:14.956Z,493.23
2019-02-05T00:54:15.085Z,493.92
2019-02-05T00:55:14.938Z,495.04
2019-02-05T00:56:17.760Z,495.46
2019-02-05T00:57:14.921Z,493.24
2019-02-05T00:58:14.912Z,493.97
2019-02-05T00:59:15.678Z,495.01
2019-02-05T01:00:14.903Z,492.94
2019-02-05T01:01:15.463Z,494.73
2019-02-05T01:02:14.853Z,495.25
2019-02-05T01:03:14.855Z,492.63
2019-02-05T01:04:14.862Z,494.69
2019-02-05T01:05:14.838Z,494.30
2019-02-05T01:06:14.819Z,493.89
2019-02-05T01:07:14.800Z,495.01
2019-02-05T01:08:14.810Z,494.43
2019-02-05T01:09:14.800Z,493.92
2019-02-05T01:10:14.772Z,495.51
2019-02-05T01:11:14.765Z,493.31
2019-02-05T01:12:14.750Z,495.90
2019-02-05T01:13:14.742Z,495.23
2019-02-05T01:14:14.746Z,494.92
2019-02-05T01:15:14.713Z,497.25
2019-02-05T01:16:14.712Z,496.81
2019-02-05T01:17:14.699Z,496.25
2019-02-05T01:18:14.677Z,493.90
2019-02-05T01:19:14.698Z,495.24
2019-02-05T01:20:14.663Z,497.64
2019-02-05T01:21:14.649Z,495.67
2019-02-05T01:22:14.651Z,493.83
2019-02-05T01:23:14.634Z,494.39
2019-02-05T01:24:14.625Z,493.35
2019-02-05T01:25:14.626Z,495.94
2019-02-05T01:26:14.609Z,495.37
2019-02-05T01:27:14.594Z,493.60
2019-02-05T01:28:14.571Z,495.28
2019-02-05T01:29:14.569Z,495.95
2019-02-05T01:30:14.579Z,494.27
2019-02-05T01:31:14.532Z,494.53
2019-02-05T01:32:14.540Z,494.79
2019-02-05T01:33:14.530Z,492.72
2019-02-05T01:34:14.525Z,494.10
2019-02-05T01:35:14.518Z,493.82
2019-02-05T01:36:14.486Z,495.37
2019-02-05T01:37:14.485Z,495.47
2019-02-05T01:38:14.461Z,494.60
2019-02-05T01:39:14.452Z,494.68
2019-02-05T01:40:14.461Z,493.89
2019-02-05T01:41:14.435Z,493.34
2019-02-05T01:42:14.430Z,494.58
2019-02-05T01:43:14.427Z,493.15
2019-02-05T01:44:14.401Z,493.41
2019-02-05T01:45:14.409Z,494.26
2019-02-05T01:46:14.376Z,493.36
2019-02-05T01:47:14.376Z,494.63
2019-02-05T01:48:14.363Z,493.48
2019-02-05T01:49:14.344Z,493.33
2019-02-05T01:50:14.354Z,493.23
2019-02-05T01:51:14.320Z,494.53
2019-02-05T01:52:14.322Z,493.28
2019-02-05T01:53:14.299Z,493.89
2019-02-05T01:54:14.300Z,494.26
2019-02-05T01:55:14.303Z,493.86
2019-02-05T01:56:14.279Z,492.77
2019-02-05T01:57:14.264Z,493.82
2019-02-05T01:58:14.259Z,496.06
2019-02-05T01:59:14.237Z,494.02
2019-02-05T02:00:14.234Z,492.79
2019-02-05T02:01:14.214Z,493.75
2019-02-05T02:02:14.205Z,495.37
2019-02-05T02:03:14.195Z,494.46
2019-02-05T02:04:14.181Z,495.39
2019-02-05T02:05:14.186Z,494.19
2019-02-05T02:06:14.167Z,493.61
2019-02-05T02:07:14.149Z,495.57
2019-02-05T02:08:14.143Z,494.20
2019-02-05T02:09:14.125Z,492.49
2019-02-05T02:10:14.139Z,492.26
2019-02-05T02:11:14.111Z,496.60
2019-02-05T02:12:14.093Z,493.93
2019-02-05T02:13:14.087Z,493.60
2019-02-05T02:14:14.075Z,494.56
2019-02-05T02:15:14.069Z,492.02
2019-02-05T02:16:14.075Z,491.46
2019-02-05T02:17:14.041Z,492.91
2019-02-05T02:18:14.034Z,492.46
2019-02-05T02:19:14.020Z,492.36
2019-02-05T02:20:14.009Z,491.14
2019-02-05T02:21:14.019Z,491.96
2019-02-05T02:22:13.980Z,492.02
2019-02-05T02:23:13.974Z,493.55
2019-02-05T02:24:13.963Z,494.13
2019-02-05T02:25:13.954Z,491.12
2019-02-05T02:26:13.954Z,491.72
2019-02-05T02:27:13.934Z,492.55
2019-02-05T02:28:13.916Z,493.09
2019-02-05T02:29:13.931Z,490.93
2019-02-05T02:30:13.897Z,489.10
2019-02-05T02:31:13.900Z,489.95
2019-02-05T02:32:13.883Z,491.64
2019-02-05T02:33:13.864Z,489.21
2019-02-05T02:34:13.855Z,489.56
2019-02-05T02:35:13.854Z,489.65
2019-02-05T02:36:13.858Z,489.74
2019-02-05T02:37:13.830Z,490.14
2019-02-05T02:38:13.816Z,490.54
2019-02-05T02:39:13.810Z,490.76
2019-02-05T02:40:13.794Z,491.72
2019-02-05T02:41:13.799Z,491.91
2019-02-05T02:42:13.766Z,490.22
2019-02-05T02:43:13.766Z,489.92
2019-02-05T02:44:13.739Z,490.75
2019-02-05T02:45:13.761Z,491.38
2019-02-05T02:46:13.754Z,490.50
2019-02-05T02:47:13.709Z,492.54
2019-02-05T02:48:13.704Z,490.12
2019-02-05T02:49:13.706Z,492.50
2019-02-05T02:50:13.676Z,492.36
2019-02-05T02:51:13.686Z,492.52
2019-02-05T02:52:13.658Z,491.50
2019-02-05T02:53:13.648Z,490.27
2019-02-05T02:54:13.639Z,491.44
2019-02-05T02:55:13.624Z,492.91
2019-02-05T02:56:13.634Z,493.40
2019-02-05T02:57:13.617Z,494.39
2019-02-05T02:58:13.767Z,492.32
2019-02-05T02:59:13.573Z,493.71
2019-02-05T03:00:13.569Z,493.96
2019-02-05T03:01:13.577Z,493.67
2019-02-05T03:02:13.554Z,491.97
2019-02-05T03:03:13.532Z,492.32
2019-02-05T03:04:13.528Z,493.43
2019-02-05T03:05:13.521Z,492.06
2019-02-05T03:06:13.521Z,492.48
2019-02-05T03:07:13.498Z,492.12
2019-02-05T03:08:13.492Z,491.69
2019-02-05T03:09:13.475Z,493.76
2019-02-05T03:10:13.460Z,493.56
2019-02-05T03:11:13.470Z,492.49
2019-02-05T03:12:13.437Z,496.18
2019-02-05T03:13:13.431Z,493.66
2019-02-05T03:14:13.422Z,492.58
2019-02-05T03:15:13.403Z,493.97
2019-02-05T03:16:13.419Z,492.02
2019-02-05T03:17:13.383Z,491.76
2019-02-05T03:18:13.379Z,492.71
2019-02-05T03:19:13.370Z,494.30
2019-02-05T03:20:13.501Z,491.40
2019-02-05T03:21:13.363Z,491.42
2019-02-05T03:22:13.526Z,491.72
2019-02-05T03:23:13.321Z,491.98
2019-02-05T03:24:13.313Z,490.68
2019-02-05T03:25:13.293Z,491.46
2019-02-05T03:26:13.287Z,493.15
2019-02-05T03:27:17.784Z,493.11
2019-02-05T03:28:14.258Z,492.05
2019-02-05T03:29:13.252Z,490.65
2019-02-05T03:30:13.247Z,492.08
2019-02-05T03:31:13.236Z,493.15
2019-02-05T03:32:13.242Z,493.11
2019-02-05T03:33:13.213Z,490.12
2019-02-05T03:34:13.211Z,491.42
2019-02-05T03:35:13.193Z,490.47
2019-02-05T03:36:13.187Z,491.58
2019-02-05T03:37:13.188Z,491.67
2019-02-05T03:38:13.160Z,490.63
2019-02-05T03:39:13.148Z,493.36
2019-02-05T03:40:13.142Z,491.31
2019-02-05T03:41:13.146Z,492.40
2019-02-05T03:42:13.159Z,492.80
2019-02-05T03:43:13.101Z,490.96
2019-02-05T03:44:13.093Z,490.76
2019-02-05T03:45:13.077Z,490.41
2019-02-05T03:46:13.065Z,491.71
2019-02-05T03:47:13.067Z,493.26
2019-02-05T03:48:13.050Z,490.88
2019-02-05T03:49:13.029Z,491.69
2019-02-05T03:50:13.035Z,489.37
2019-02-05T03:51:13.016Z,491.92
2019-02-05T03:52:13.107Z,490.17
2019-02-05T03:53:12.986Z,490.80
2019-02-05T03:54:12.984Z,492.00
2019-02-05T03:55:12.968Z,491.38
2019-02-05T03:56:12.956Z,491.10
2019-02-05T03:57:12.964Z,491.03
2019-02-05T03:58:12.940Z,491.63
2019-02-05T03:59:12.923Z,490.94
2019-02-05T04:00:12.927Z,490.46
2019-02-05T04:01:12.898Z,488.71
2019-02-05T04:02:12.947Z,492.56
2019-02-05T04:03:12.904Z,490.93
2019-02-05T04:04:12.881Z,490.32
2019-02-05T04:05:12.857Z,492.53
2019-02-05T04:06:12.864Z,490.04
2019-02-05T04:07:12.867Z,489.51
2019-02-05T04:08:12.841Z,489.82
2019-02-05T04:09:12.825Z,490.31
2019-02-05T04:10:12.803Z,489.35
2019-02-05T04:11:12.796Z,491.17
2019-02-05T04:12:12.790Z,491.88
2019-02-05T04:13:12.789Z,488.81
2019-02-05T04:14:12.761Z,488.99
2019-02-05T04:15:12.762Z,488.92
2019-02-05T04:16:12.737Z,488.12
2019-02-05T04:17:12.726Z,490.45
2019-02-05T04:18:12.748Z,489.60
2019-02-05T04:19:12.717Z,488.86
2019-02-05T04:20:12.707Z,489.13
2019-02-05T04:21:12.678Z,490.91
2019-02-05T04:22:12.666Z,489.86
2019-02-05T04:23:12.680Z,489.23
2019-02-05T04:24:12.648Z,488.60
2019-02-05T04:25:12.751Z,490.84
2019-02-05T04:26:12.633Z,489.24
2019-02-05T04:27:12.616Z,488.62
2019-02-05T04:28:12.619Z,490.23
2019-02-05T04:29:12.607Z,490.88
2019-02-05T04:30:12.589Z,489.95
2019-02-05T04:31:12.655Z,491.80
2019-02-05T04:32:12.567Z,489.27
2019-02-05T04:33:12.591Z,488.75
2019-02-05T04:34:12.563Z,489.46
2019-02-05T04:35:12.533Z,489.20
2019-02-05T04:36:12.521Z,489.33
2019-02-05T04:37:12.511Z,489.17
2019-02-05T04:38:12.526Z,489.27
2019-02-05T04:39:12.494Z,489.32
2019-02-05T04:40:12.489Z,490.51
2019-02-05T04:41:12.459Z,489.78
2019-02-05T04:42:12.466Z,489.91
2019-02-05T04:43:12.448Z,489.96
2019-02-05T04:44:12.437Z,488.70
2019-02-05T04:45:12.442Z,490.21
2019-02-05T04:46:12.425Z,490.70
2019-02-05T04:47:12.404Z,489.92
2019-02-05T04:48:12.421Z,487.22
2019-02-05T04:49:12.386Z,487.07
2019-02-05T04:50:12.402Z,488.05
2019-02-05T04:51:12.353Z,486.79
2019-02-05T04:52:12.339Z,486.84
2019-02-05T04:53:12.330Z,486.42
2019-02-05T04:54:12.329Z,487.19
2019-02-05T04:55:12.318Z,486.69
2019-02-05T04:56:12.298Z,486.27
2019-02-05T04:57:12.309Z,485.42
2019-02-05T04:58:12.285Z,485.61
2019-02-05T04:59:12.281Z,483.94
2019-02-05T05:00:12.267Z,486.83
2019-02-05T05:01:12.244Z,486.36
2019-02-05T05:02:12.239Z,486.60
2019-02-05T05:03:12.226Z,487.13
2019-02-05T05:04:12.228Z,485.06
2019-02-05T05:05:12.208Z,484.98
2019-02-05T05:06:12.200Z,486.08
2019-02-05T05:07:12.206Z,486.63
2019-02-05T05:08:12.176Z,485.60
2019-02-05T05:09:12.166Z,485.11
2019-02-05T05:10:12.155Z,485.63
2019-02-05T05:11:12.137Z,484.48
2019-02-05T05:12:12.132Z,483.76
2019-02-05T05:13:12.115Z,483.92
2019-02-05T05:14:12.123Z,483.20
2019-02-05T05:15:12.088Z,483.74
2019-02-05T05:16:12.089Z,484.38
2019-02-05T05:17:12.076Z,483.51
2019-02-05T05:18:15.299Z,484.85
2019-02-05T05:19:12.058Z,483.20
2019-02-05T05:20:12.042Z,483.78
2019-02-05T05:21:12.028Z,484.71
2019-02-05T05:22:12.023Z,485.76
2019-02-05T05:23:12.017Z,483.77
2019-02-05T05:24:12.032Z,482.52
2019-02-05T05:25:11.988Z,483.50
2019-02-05T05:26:11.966Z,481.27
2019-02-05T05:27:11.972Z,482.92
2019-02-05T05:28:11.948Z,482.08
2019-02-05T05:29:11.965Z,481.86
2019-02-05T05:30:11.933Z,480.58
2019-02-05T05:31:11.927Z,483.90
2019-02-05T05:32:11.911Z,482.58
2019-02-05T05:33:11.909Z,481.83
2019-02-05T05:34:11.891Z,481.49
2019-02-05T05:35:11.891Z,481.73
2019-02-05T05:36:11.874Z,482.48
2019-02-05T05:37:11.876Z,482.71
2019-02-05T05:38:11.843Z,483.89
2019-02-05T05:39:11.831Z,485.62
2019-02-05T05:40:11.837Z,483.14
2019-02-05T05:41:11.815Z,483.61
2019-02-05T05:42:11.792Z,484.66
2019-02-05T05:43:11.790Z,484.88
2019-02-05T05:44:11.781Z,484.49
2019-02-05T05:45:11.775Z,482.98
2019-02-05T05:46:11.765Z,482.76
2019-02-05T05:47:11.751Z,484.73
2019-02-05T05:48:11.783Z,483.65
2019-02-05T05:49:11.725Z,484.07
2019-02-05T05:50:11.735Z,483.76
2019-02-05T05:51:11.702Z,481.04
2019-02-05T05:52:11.695Z,483.27
2019-02-05T05:53:11.689Z,483.12
2019-02-05T05:54:11.707Z,484.12
2019-02-05T05:55:11.685Z,481.95
2019-02-05T05:56:11.647Z,483.09
2019-02-05T05:57:11.640Z,481.32
2019-02-05T05:58:22.361Z,483.03
2019-02-05T05:59:12.609Z,482.05
2019-02-05T06:00:11.630Z,481.69
2019-02-05T06:01:11.591Z,482.76
2019-02-05T06:02:11.598Z,480.63
2019-02-05T06:03:11.567Z,480.55
2019-02-05T06:04:11.566Z,480.57
2019-02-05T06:05:11.571Z,481.36
2019-02-05T06:06:11.537Z,481.69
2019-02-05T06:07:11.521Z,480.42
2019-02-05T06:08:11.514Z,480.27
2019-02-05T06:09:11.494Z,481.48
2019-02-05T06:10:11.511Z,480.80
2019-02-05T06:11:11.483Z,478.53
2019-02-05T06:12:11.476Z,479.65
2019-02-05T06:13:11.469Z,480.45
2019-02-05T06:14:11.457Z,480.49
2019-02-05T06:15:11.456Z,480.73
2019-02-05T06:16:11.424Z,481.58
2019-02-05T06:17:11.427Z,481.05
2019-02-05T06:18:11.419Z,481.66
2019-02-05T06:19:11.392Z,481.92
2019-02-05T06:20:11.413Z,483.27
2019-02-05T06:21:13.595Z,482.35
2019-02-05T06:22:11.362Z,482.56
2019-02-05T06:23:11.346Z,482.06
2019-02-05T06:24:11.342Z,482.86
2019-02-05T06:25:11.339Z,482.19
2019-02-05T06:26:11.341Z,482.33
2019-02-05T06:27:11.304Z,481.39
2019-02-05T06:28:11.316Z,481.14
2019-02-05T06:29:11.294Z,478.66
2019-02-05T06:30:11.282Z,478.38
2019-02-05T06:31:11.282Z,480.13
2019-02-05T06:32:11.248Z,479.74
2019-02-05T06:33:11.242Z,479.75
2019-02-05T06:34:11.248Z,480.06
2019-02-05T06:35:11.211Z,480.47
2019-02-05T06:36:11.224Z,479.20
2019-02-05T06:37:11.198Z,479.33
2019-02-05T06:38:11.192Z,479.84
2019-02-05T06:39:11.174Z,481.06
2019-02-05T06:40:11.158Z,481.11
2019-02-05T06:41:11.184Z,480.34
2019-02-05T06:42:11.150Z,479.10
2019-02-05T06:43:11.128Z,479.17
2019-02-05T06:44:11.126Z,480.94
2019-02-05T06:45:11.114Z,480.19
2019-02-05T06:46:11.117Z,480.52
2019-02-05T06:47:11.082Z,480.87
2019-02-05T06:48:11.078Z,480.57
2019-02-05T06:49:11.070Z,478.83
2019-02-05T06:50:11.063Z,478.95
2019-02-05T06:51:11.059Z,479.35
2019-02-05T06:52:11.033Z,479.15
2019-02-05T06:53:11.023Z,480.63
2019-02-05T06:54:11.033Z,480.69
2019-02-05T06:55:11.006Z,480.19
2019-02-05T06:56:11.014Z,480.49
2019-02-05T06:57:10.981Z,477.96
2019-02-05T06:58:10.969Z,480.29
2019-02-05T06:59:10.982Z,479.12
2019-02-05T07:00:10.951Z,481.23
2019-02-05T07:01:10.939Z,481.60
2019-02-05T07:02:10.942Z,482.34
2019-02-05T07:03:10.915Z,482.29
2019-02-05T07:04:10.894Z,480.56
2019-02-05T07:05:10.989Z,479.98
2019-02-05T07:06:10.882Z,478.86
2019-02-05T07:07:10.887Z,480.31
2019-02-05T07:08:10.852Z,481.48
2019-02-05T07:09:10.849Z,481.53
2019-02-05T07:10:10.844Z,480.55
2019-02-05T07:11:10.821Z,480.88
2019-02-05T07:12:10.819Z,480.60
2019-02-05T07:13:10.812Z,480.88
2019-02-05T07:14:10.794Z,481.01
2019-02-05T07:15:10.791Z,481.57
2019-02-05T07:16:10.763Z,481.40
2019-02-05T07:17:10.763Z,480.56
2019-02-05T07:18:10.739Z,481.05
2019-02-05T07:19:10.755Z,480.78
2019-02-05T07:20:10.716Z,479.88
2019-02-05T07:21:10.725Z,480.95
2019-02-05T07:22:10.721Z,478.27
2019-02-05T07:23:10.696Z,480.69
2019-02-05T07:24:10.679Z,479.69
2019-02-05T07:25:10.678Z,479.39
2019-02-05T07:26:10.660Z,480.01
2019-02-05T07:27:10.654Z,477.65
2019-02-05T07:28:10.641Z,477.46
2019-02-05T07:29:10.627Z,476.73
2019-02-05T07:30:10.647Z,477.71
2019-02-05T07:31:10.598Z,477.72
2019-02-05T07:32:10.616Z,477.18
2019-02-05T07:33:10.591Z,478.85
2019-02-05T07:34:10.594Z,477.26
2019-02-05T07:35:10.567Z,477.70
2019-02-05T07:36:10.568Z,477.14
2019-02-05T07:37:10.565Z,478.71
2019-02-05T07:38:10.593Z,477.58
2019-02-05T07:39:10.525Z,479.72
2019-02-05T07:40:10.621Z,478.12
2019-02-05T07:41:10.507Z,478.57
2019-02-05T07:42:10.478Z,478.60
2019-02-05T07:43:10.487Z,478.60
2019-02-05T07:44:10.463Z,478.45
2019-02-05T07:45:10.452Z,480.61
2019-02-05T07:46:10.460Z,478.71
2019-02-05T07:47:10.447Z,480.42
2019-02-05T07:48:10.441Z,479.17
2019-02-05T07:49:10.425Z,480.16
2019-02-05T07:50:10.388Z,478.27
2019-02-05T07:51:10.393Z,478.47
2019-02-05T07:52:10.371Z,480.27
2019-02-05T07:53:10.376Z,479.85
2019-02-05T07:54:10.357Z,481.39
2019-02-05T07:55:10.343Z,479.54
2019-02-05T07:56:12.866Z,479.62
2019-02-05T07:57:10.319Z,479.91
2019-02-05T07:58:10.324Z,479.49
2019-02-05T07:59:10.679Z,479.98
2019-02-05T08:00:10.289Z,481.34
2019-02-05T08:01:10.280Z,481.62
2019-02-05T08:02:10.270Z,481.24
2019-02-05T08:03:10.279Z,479.60
2019-02-05T08:04:10.243Z,479.60
2019-02-05T08:05:10.230Z,481.12
2019-02-05T08:06:10.228Z,480.27
2019-02-05T08:07:10.212Z,480.29
2019-02-05T08:08:10.209Z,479.79
2019-02-05T08:09:10.244Z,478.90
2019-02-05T08:10:10.178Z,480.31
2019-02-05T08:11:10.174Z,479.73
2019-02-05T08:12:10.156Z,478.55
2019-02-05T08:13:10.171Z,477.19
2019-02-05T08:14:10.129Z,479.96
2019-02-05T08:15:10.126Z,477.89
2019-02-05T08:16:10.116Z,479.29
2019-02-05T08:17:10.116Z,480.97
2019-02-05T08:18:10.106Z,478.77
2019-02-05T08:19:10.116Z,478.57
2019-02-05T08:20:10.072Z,480.06
2019-02-05T08:21:10.059Z,479.59
2019-02-05T08:22:10.056Z,480.79
2019-02-05T08:23:10.027Z,481.05
2019-02-05T08:24:10.050Z,479.62
2019-02-05T08:25:10.013Z,478.29
2019-02-05T08:26:10.002Z,477.00
2019-02-05T08:27:09.998Z,480.02
2019-02-05T08:28:09.975Z,479.22
2019-02-05T08:29:21.130Z,479.07
2019-02-05T08:30:10.961Z,479.98
2019-02-05T08:31:09.957Z,481.96
2019-02-05T08:32:09.928Z,482.42
2019-02-05T08:33:09.926Z,480.50
2019-02-05T08:34:09.966Z,481.29
2019-02-05T08:35:09.907Z,479.77
2019-02-05T08:36:09.889Z,479.44
2019-02-05T08:37:09.891Z,476.92
2019-02-05T08:38:09.872Z,479.07
2019-02-05T08:39:09.875Z,477.12
2019-02-05T08:40:09.851Z,479.55
2019-02-05T08:41:09.836Z,480.25
2019-02-05T08:42:09.827Z,479.83
2019-02-05T08:43:09.813Z,482.69
2019-02-05T08:44:09.819Z,481.81
2019-02-05T08:45:09.798Z,478.94
2019-02-05T08:46:09.779Z,481.03
2019-02-05T08:47:09.775Z,480.10
2019-02-05T08:48:09.757Z,479.09
2019-02-05T08:49:09.771Z,481.39
2019-02-05T08:50:09.850Z,481.31
2019-02-05T08:51:09.763Z,480.09
2019-02-05T08:52:09.706Z,481.93
2019-02-05T08:53:09.705Z,482.79
2019-02-05T08:54:09.697Z,481.89
2019-02-05T08:55:09.681Z,482.82
2019-02-05T08:56:09.689Z,482.68
2019-02-05T08:57:09.662Z,480.80
2019-02-05T08:58:09.664Z,482.82
2019-02-05T08:59:09.665Z,481.94
2019-02-05T09:00:09.636Z,481.59
2019-02-05T09:01:09.628Z,479.53
2019-02-05T09:02:09.603Z,478.44
2019-02-05T09:03:09.593Z,481.54
2019-02-05T09:04:09.616Z,480.10
2019-02-05T09:05:09.575Z,484.58
2019-02-05T09:06:09.554Z,483.21
2019-02-05T09:07:09.557Z,480.12
2019-02-05T09:08:09.550Z,477.62
2019-02-05T09:09:09.555Z,480.42
2019-02-05T09:10:09.519Z,483.03
2019-02-05T09:11:09.509Z,482.97
2019-02-05T09:12:09.512Z,480.98
2019-02-05T09:13:09.485Z,481.36
2019-02-05T09:14:10.880Z,480.09
2019-02-05T09:15:09.489Z,482.49
2019-02-05T09:16:09.444Z,483.47
2019-02-05T09:17:09.441Z,481.85
2019-02-05T09:18:09.439Z,480.75
2019-02-05T09:19:09.424Z,481.44
2019-02-05T09:20:09.428Z,483.34
2019-02-05T09:21:09.400Z,481.82
2019-02-05T09:22:09.399Z,485.42
2019-02-05T09:23:09.396Z,483.50
2019-02-05T09:24:09.372Z,481.20
2019-02-05T09:25:09.387Z,483.80
2019-02-05T09:26:09.349Z,481.74
2019-02-05T09:27:09.340Z,483.42
2019-02-05T09:28:09.316Z,481.14
2019-02-05T09:29:09.307Z,484.60
2019-02-05T09:30:09.318Z,484.43
2019-02-05T09:31:09.296Z,484.11
2019-02-05T09:32:09.282Z,484.39
2019-02-05T09:33:09.274Z,482.26
2019-02-05T09:34:09.253Z,484.85
2019-02-05T09:35:09.262Z,483.50
2019-02-05T09:36:09.230Z,482.70
2019-02-05T09:37:09.220Z,483.70
2019-02-05T09:38:09.217Z,484.21
2019-02-05T09:39:09.209Z,482.68
2019-02-05T09:40:09.211Z,480.38
2019-02-05T09:41:09.175Z,481.59
2019-02-05T09:42:09.165Z,481.14
2019-02-05T09:43:09.147Z,481.89
2019-02-05T09:44:09.136Z,483.53
2019-02-05T09:45:09.158Z,483.94
2019-02-05T09:46:09.116Z,481.95
2019-02-05T09:47:09.108Z,484.72
2019-02-05T09:48:09.090Z,483.01
2019-02-05T09:49:09.087Z,484.30
2019-02-05T09:50:09.089Z,487.31
2019-02-05T09:51:09.080Z,484.36
2019-02-05T09:52:09.049Z,483.92
2019-02-05T09:53:09.058Z,482.87
2019-02-05T09:54:09.030Z,482.94
2019-02-05T09:55:09.019Z,482.40
2019-02-05T09:56:09.018Z,482.66
2019-02-05T09:57:08.985Z,483.42
2019-02-05T09:58:08.987Z,483.41
2019-02-05T09:59:08.971Z,484.42
2019-02-05T10:00:09.825Z,483.15
2019-02-05T10:01:08.965Z,483.36
2019-02-05T10:02:08.940Z,483.61
2019-02-05T10:03:08.925Z,485.11
2019-02-05T10:04:08.925Z,484.42
2019-02-05T10:05:08.956Z,483.53
2019-02-05T10:06:08.906Z,484.55
2019-02-05T10:07:08.882Z,483.37
2019-02-05T10:08:08.878Z,483.31
2019-02-05T10:09:08.872Z,484.46
2019-02-05T10:10:08.868Z,482.13
2019-02-05T10:11:08.871Z,484.15
2019-02-05T10:12:08.829Z,484.32
2019-02-05T10:13:08.817Z,481.08
2019-02-05T10:14:08.813Z,481.65
2019-02-05T10:15:08.795Z,484.04
2019-02-05T10:16:08.814Z,483.04
2019-02-05T10:17:08.776Z,483.23
2019-02-05T10:18:08.772Z,482.31
2019-02-05T10:19:08.754Z,483.61
2019-02-05T10:20:08.747Z,485.24
2019-02-05T10:21:08.772Z,485.04
2019-02-05T10:22:08.705Z,484.37
2019-02-05T10:23:08.715Z,485.39
2019-02-05T10:24:08.692Z,483.77
2019-02-05T10:25:08.695Z,483.06
2019-02-05T10:26:08.697Z,480.86
2019-02-05T10:27:08.676Z,485.10
2019-02-05T10:28:08.647Z,484.83
2019-02-05T10:29:08.642Z,485.71
2019-02-05T10:30:08.634Z,484.69
2019-02-05T10:31:08.608Z,484.29
2019-02-05T10:32:08.616Z,484.16
2019-02-05T10:33:08.584Z,486.23
2019-02-05T10:34:08.579Z,486.23
2019-02-05T10:35:08.560Z,484.23
2019-02-05T10:36:08.560Z,485.37
2019-02-05T10:37:08.553Z,484.73
2019-02-05T10:38:08.541Z,485.73
2019-02-05T10:39:08.535Z,484.89
2019-02-05T10:40:08.514Z,484.81
2019-02-05T10:41:08.493Z,484.52
2019-02-05T10:42:08.497Z,484.96
2019-02-05T10:43:08.497Z,483.97
2019-02-05T10:44:08.483Z,485.25
2019-02-05T10:45:08.459Z,486.12
2019-02-05T10:46:08.450Z,485.61
2019-02-05T10:47:08.450Z,486.12
2019-02-05T10:48:08.422Z,484.43
2019-02-05T10:49:08.417Z,480.09
2019-02-05T10:50:08.407Z,483.15
2019-02-05T10:51:08.385Z,486.84
2019-02-05T10:52:08.391Z,483.74
2019-02-05T10:53:08.378Z,484.78
2019-02-05T10:54:08.362Z,486.69
2019-02-05T10:55:08.365Z,484.63
2019-02-05T10:56:08.333Z,483.19
2019-02-05T10:57:08.439Z,484.24
2019-02-05T10:58:08.314Z,485.39
2019-02-05T10:59:08.292Z,484.76
2019-02-05T11:00:09.264Z,483.65
2019-02-05T11:01:08.266Z,484.40
2019-02-05T11:02:08.278Z,486.01
2019-02-05T11:03:08.258Z,485.92
2019-02-05T11:04:08.254Z,485.06
2019-02-05T11:05:08.226Z,485.85
2019-02-05T11:06:08.229Z,484.42
2019-02-05T11:07:08.230Z,485.70
2019-02-05T11:08:08.194Z,486.08
2019-02-05T11:09:08.184Z,485.77
2019-02-05T11:10:08.168Z,484.91
2019-02-05T11:11:08.188Z,484.92
2019-02-05T11:12:08.173Z,485.98
2019-02-05T11:13:08.144Z,486.29
2019-02-05T11:14:08.149Z,485.36
2019-02-05T11:15:08.127Z,484.16
2019-02-05T11:16:08.139Z,484.38
2019-02-05T11:17:08.112Z,485.35
2019-02-05T11:18:08.083Z,486.21
2019-02-05T11:19:08.079Z,485.94
2019-02-05T11:20:08.062Z,486.25
2019-02-05T11:21:08.060Z,484.38
2019-02-05T11:22:08.051Z,484.69
2019-02-05T11:23:08.053Z,483.56
2019-02-05T11:24:08.030Z,483.86
2019-02-05T11:25:08.013Z,484.36
2019-02-05T11:26:08.002Z,484.21
2019-02-05T11:27:07.983Z,485.16
2019-02-05T11:28:07.982Z,483.84
2019-02-05T11:29:07.963Z,486.20
2019-02-05T11:30:07.954Z,483.85
2019-02-05T11:31:07.946Z,484.26
2019-02-05T11:32:07.949Z,486.29
2019-02-05T11:33:07.942Z,484.94
2019-02-05T11:34:07.901Z,487.61
2019-02-05T11:35:07.902Z,485.85
2019-02-05T11:36:07.885Z,485.98
2019-02-05T11:37:07.874Z,485.63
2019-02-05T11:38:07.875Z,485.91
2019-02-05T11:39:07.852Z,487.17
2019-02-05T11:40:07.849Z,486.80
2019-02-05T11:41:07.839Z,487.56
2019-02-05T11:42:07.820Z,487.45
2019-02-05T11:43:07.834Z,486.42
2019-02-05T11:44:07.797Z,486.21
2019-02-05T11:45:07.817Z,486.41
2019-02-05T11:46:07.779Z,488.79
2019-02-05T11:47:07.777Z,486.52
2019-02-05T11:48:07.765Z,486.76
2019-02-05T11:49:07.741Z,486.40
2019-02-05T11:50:07.723Z,486.33
2019-02-05T11:51:07.720Z,485.31
2019-02-05T11:52:09.736Z,484.12
2019-02-05T11:53:07.734Z,487.63
2019-02-05T11:54:07.685Z,486.76
2019-02-05T11:55:07.664Z,487.33
2019-02-05T11:56:07.657Z,484.95
2019-02-05T11:57:07.655Z,485.35
2019-02-05T11:58:07.733Z,486.10
2019-02-05T11:59:07.621Z,486.34
2019-02-05T12:00:07.616Z,486.21
2019-02-05T12:01:07.611Z,486.31
2019-02-05T12:02:07.604Z,486.07
2019-02-05T12:03:07.612Z,485.78
2019-02-05T12:04:07.592Z,487.52
2019-02-05T12:05:07.560Z,488.91
2019-02-05T12:06:07.545Z,487.98
2019-02-05T12:07:07.556Z,487.60
2019-02-05T12:08:07.548Z,486.30
2019-02-05T12:09:07.523Z,484.49
2019-02-05T12:10:07.514Z,484.39
2019-02-05T12:11:07.502Z,487.69
2019-02-05T12:12:07.480Z,488.98
2019-02-05T12:13:07.483Z,488.10
2019-02-05T12:14:07.453Z,488.67
2019-02-05T12:15:07.451Z,488.66
2019-02-05T12:16:07.429Z,486.91
2019-02-05T12:17:07.432Z,486.41
2019-02-05T12:18:07.871Z,485.18
2019-02-05T12:19:07.406Z,481.65
2019-02-05T12:20:07.408Z,486.13
2019-02-05T12:21:07.414Z,484.25
2019-02-05T12:22:07.362Z,484.13
2019-02-05T12:23:07.372Z,483.94
2019-02-05T12:24:07.350Z,484.53
2019-02-05T12:25:07.343Z,483.69
2019-02-05T12:26:07.394Z,483.27
2019-02-05T12:27:07.314Z,484.73
2019-02-05T12:28:07.328Z,486.67